createdAt,value
2018-09-29T00:02:56.461Z,39.01
2018-09-29T00:08:00.080Z,38.83
2018-09-29T00:13:03.347Z,38.56
2018-09-29T00:18:06.717Z,39.03
2018-09-29T00:23:09.981Z,39.02
2018-09-29T00:28:13.284Z,38.89
2018-09-29T00:33:16.544Z,39.03
2018-09-29T00:38:19.888Z,39.06
2018-09-29T00:43:23.154Z,39.01
2018-09-29T00:48:26.433Z,39.05
2018-09-29T00:53:29.723Z,38.74
2018-09-29T00:58:33.112Z,39.14
2018-09-29T01:03:36.381Z,38.66
2018-09-29T01:08:39.676Z,38.73
2018-09-29T01:13:42.939Z,38.69
2018-09-29T01:18:46.200Z,39.30
2018-09-29T01:23:49.548Z,39.31
2018-09-29T01:28:52.807Z,39.17
2018-09-29T01:33:56.076Z,38.75
2018-09-29T01:38:59.331Z,39.18
2018-09-29T01:44:02.644Z,38.89
2018-09-29T01:49:05.915Z,39.26
2018-09-29T01:54:09.193Z,39.05
2018-09-29T01:59:12.459Z,38.92
2018-09-29T02:04:15.720Z,39.25
2018-09-29T02:09:18.984Z,39.31
2018-09-29T02:14:22.247Z,39.25
2018-09-29T02:19:25.512Z,38.97
2018-09-29T02:24:28.801Z,39.17
2018-09-29T02:29:32.059Z,38.93
2018-09-29T02:34:35.324Z,39.00
2018-09-29T02:39:38.621Z,39.04
2018-09-29T02:44:41.887Z,38.89
2018-09-29T02:49:45.168Z,39.02
2018-09-29T02:54:48.614Z,39.04
2018-09-29T02:59:51.881Z,38.76
2018-09-29T03:04:55.200Z,39.47
2018-09-29T03:09:58.466Z,39.20
2018-09-29T03:15:01.745Z,38.97
2018-09-29T03:20:05.249Z,39.37
2018-09-29T03:25:08.529Z,39.06
2018-09-29T03:30:11.801Z,38.96
2018-09-29T03:35:15.076Z,38.90
2018-09-29T03:40:18.368Z,39.14
2018-09-29T03:45:21.652Z,39.14
2018-09-29T03:50:24.905Z,39.40
2018-09-29T03:55:28.245Z,39.46
2018-09-29T04:00:31.517Z,39.28
2018-09-29T04:05:34.813Z,38.98
2018-09-29T04:10:38.096Z,39.23
2018-09-29T04:15:41.356Z,39.33
2018-09-29T04:20:44.620Z,39.46
2018-09-29T04:25:47.937Z,39.19
2018-09-29T04:30:51.250Z,38.90
2018-09-29T04:35:54.531Z,39.21
2018-09-29T04:40:57.833Z,39.07
2018-09-29T04:46:01.143Z,39.43
2018-09-29T04:51:04.416Z,39.37
2018-09-29T04:56:07.683Z,39.19
2018-09-29T05:01:10.984Z,39.32
2018-09-29T05:06:14.500Z,39.31
2018-09-29T05:11:17.775Z,39.08
2018-09-29T05:16:21.317Z,39.34
2018-09-29T05:21:24.629Z,39.01
2018-09-29T05:26:27.900Z,39.21
2018-09-29T05:31:31.178Z,39.23
2018-09-29T05:36:34.469Z,39.13
2018-09-29T05:41:37.740Z,39.02
2018-09-29T05:46:41.012Z,39.07
2018-09-29T05:51:44.329Z,39.56
2018-09-29T05:56:47.597Z,39.16
2018-09-29T06:01:51.079Z,39.58
2018-09-29T06:06:54.381Z,39.14
2018-09-29T06:11:57.704Z,39.12
2018-09-29T06:17:00.984Z,39.02
2018-09-29T06:22:04.249Z,39.31
2018-09-29T06:27:07.568Z,39.13
2018-09-29T06:32:10.996Z,39.32
2018-09-29T06:37:14.268Z,39.19
2018-09-29T06:42:17.528Z,39.16
2018-09-29T06:47:20.792Z,39.20
2018-09-29T06:52:24.196Z,39.24
2018-09-29T06:57:28.922Z,38.81
2018-09-29T07:02:32.852Z,38.59
2018-09-29T07:07:36.111Z,33.80
2018-09-29T07:12:39.488Z,33.67
2018-09-29T07:17:42.800Z,33.36
2018-09-29T07:22:46.156Z,33.32
2018-09-29T07:27:49.421Z,33.40
2018-09-29T07:32:52.712Z,34.05
2018-09-29T07:37:55.984Z,34.19
2018-09-29T07:42:59.240Z,34.16
2018-09-29T07:48:02.511Z,34.34
2018-09-29T07:53:05.965Z,34.82
2018-09-29T07:58:09.228Z,34.91
2018-09-29T08:03:13.338Z,34.84
2018-09-29T08:08:16.606Z,34.81
2018-09-29T08:13:19.877Z,34.88
2018-09-29T08:18:23.144Z,35.46
2018-09-29T08:23:26.441Z,35.67
2018-09-29T08:28:29.712Z,35.92
2018-09-29T08:33:32.967Z,35.89
2018-09-29T08:38:36.255Z,35.55
2018-09-29T08:43:39.547Z,35.25
2018-09-29T08:48:42.812Z,35.13
2018-09-29T08:53:46.169Z,35.70
2018-09-29T08:58:49.421Z,35.85
2018-09-29T09:03:52.771Z,35.68
2018-09-29T09:08:56.020Z,35.70
2018-09-29T09:13:59.295Z,35.57
2018-09-29T09:19:02.588Z,35.84
2018-09-29T09:24:06.070Z,36.08
2018-09-29T09:29:10.242Z,36.05
2018-09-29T09:34:13.545Z,36.45
2018-09-29T09:39:16.817Z,35.83
2018-09-29T09:44:20.277Z,36.30
2018-09-29T09:49:23.704Z,36.27
2018-09-29T09:54:26.984Z,36.16
2018-09-29T09:59:30.267Z,36.32
2018-09-29T10:04:33.584Z,35.80
2018-09-29T10:09:37.641Z,36.28
2018-09-29T10:14:40.973Z,36.18
2018-09-29T10:19:44.243Z,36.19
2018-09-29T10:24:48.598Z,36.37
2018-09-29T10:29:51.883Z,36.68
2018-09-29T10:34:55.176Z,36.48
2018-09-29T10:39:58.457Z,33.41
2018-09-29T10:45:01.942Z,32.24
2018-09-29T10:50:06.963Z,31.80
2018-09-29T10:55:10.225Z,31.80
2018-09-29T11:00:13.483Z,32.54
2018-09-29T11:05:16.749Z,33.47
2018-09-29T11:10:20.080Z,33.46
2018-09-29T11:15:23.353Z,33.65
2018-09-29T11:20:26.617Z,33.65
2018-09-29T11:25:29.909Z,33.83
2018-09-29T11:30:33.180Z,33.68
2018-09-29T11:35:36.440Z,33.49
2018-09-29T11:40:39.833Z,33.60
2018-09-29T11:45:43.088Z,33.60
2018-09-29T11:50:46.356Z,34.13
2018-09-29T11:55:49.628Z,33.82
2018-09-29T12:00:53.266Z,33.78
2018-09-29T12:05:56.544Z,34.03
2018-09-29T12:10:59.833Z,34.27
2018-09-29T12:16:03.172Z,34.11
2018-09-29T12:21:06.447Z,33.98
2018-09-29T12:26:09.759Z,33.91
2018-09-29T12:31:13.036Z,33.71
2018-09-29T12:36:16.364Z,33.39
2018-09-29T12:41:19.652Z,33.43
2018-09-29T12:46:22.913Z,33.82
2018-09-29T12:51:26.273Z,33.78
2018-09-29T12:56:30.375Z,33.49
2018-09-29T13:01:33.785Z,33.75
2018-09-29T13:06:37.311Z,33.50
2018-09-29T13:11:41.400Z,33.32
2018-09-29T13:16:44.970Z,33.15
2018-09-29T13:21:48.253Z,33.36
2018-09-29T13:26:51.640Z,33.71
2018-09-29T13:31:54.990Z,33.57
2018-09-29T13:36:58.283Z,33.18
2018-09-29T13:42:01.561Z,32.60
2018-09-29T13:47:04.839Z,32.97
2018-09-29T13:52:08.132Z,32.93
2018-09-29T13:57:11.395Z,33.09
2018-09-29T14:02:14.687Z,32.76
2018-09-29T14:07:17.961Z,32.85
2018-09-29T14:12:21.245Z,33.06
2018-09-29T14:17:24.513Z,32.71
2018-09-29T14:22:27.788Z,32.78
2018-09-29T14:27:31.067Z,32.74
2018-09-29T14:32:34.344Z,32.48
2018-09-29T14:37:37.607Z,32.37
2018-09-29T14:42:40.887Z,32.65
2018-09-29T14:47:44.279Z,32.59
2018-09-29T14:52:54.313Z,33.07
2018-09-29T14:57:57.593Z,32.43
2018-09-29T15:03:00.872Z,32.62
2018-09-29T15:08:04.468Z,32.46
2018-09-29T15:13:07.761Z,32.44
2018-09-29T15:18:11.066Z,32.83
2018-09-29T15:23:14.365Z,32.42
2018-09-29T15:28:17.652Z,32.98
2018-09-29T15:33:20.927Z,32.88
2018-09-29T15:38:24.295Z,32.47
2018-09-29T15:43:27.584Z,32.63
2018-09-29T15:48:30.894Z,32.65
2018-09-29T15:54:17.808Z,32.48
2018-09-29T15:59:21.168Z,32.96
2018-09-29T16:04:24.537Z,32.95
2018-09-29T16:09:27.829Z,32.77
2018-09-29T16:14:31.125Z,32.97
2018-09-29T16:19:34.421Z,32.08
2018-09-29T16:24:37.887Z,32.09
2018-09-29T16:29:41.214Z,32.32
2018-09-29T16:34:44.552Z,32.43
2018-09-29T16:39:48.120Z,32.66
2018-09-29T16:44:51.457Z,33.00
2018-09-29T16:49:54.716Z,33.54
2018-09-29T16:54:58.036Z,33.16
2018-09-29T17:00:01.395Z,33.32
2018-09-29T17:05:04.892Z,33.60
2018-09-29T17:10:08.160Z,34.29
2018-09-29T17:15:11.434Z,34.14
2018-09-29T17:20:14.712Z,34.93
2018-09-29T17:25:17.977Z,35.01
2018-09-29T17:30:21.412Z,34.80
2018-09-29T17:37:18.903Z,35.49
2018-09-29T17:42:22.275Z,35.27
2018-09-29T17:47:25.540Z,35.42
2018-09-29T17:52:28.800Z,35.18
2018-09-29T17:57:32.076Z,34.87
2018-09-29T18:02:35.353Z,35.10
2018-09-29T18:07:38.621Z,35.04
2018-09-29T18:12:41.883Z,35.35
2018-09-29T18:17:45.147Z,35.12
2018-09-29T18:22:48.448Z,35.27
2018-09-29T18:27:51.799Z,35.54
2018-09-29T18:32:55.059Z,35.21
2018-09-29T18:37:58.389Z,35.24
2018-09-29T18:48:03.972Z,35.93
2018-09-29T18:53:07.404Z,35.95
2018-09-29T18:58:10.678Z,35.58
2018-09-29T19:03:13.948Z,35.83
2018-09-29T19:08:17.272Z,36.13
2018-09-29T19:13:20.579Z,35.94
2018-09-29T19:18:23.923Z,36.03
2018-09-29T19:23:27.979Z,36.39
2018-09-29T19:28:31.365Z,36.42
2018-09-29T19:33:34.860Z,36.21
2018-09-29T19:38:38.147Z,35.88
2018-09-29T20:06:13.116Z,36.65
2018-09-29T20:11:16.862Z,36.89
2018-09-29T20:16:20.204Z,36.96
2018-09-29T20:21:23.509Z,36.58
2018-09-29T21:00:13.144Z,37.37
2018-09-29T21:05:16.447Z,37.81
2018-09-29T21:10:19.717Z,37.67
2018-09-29T21:15:23.032Z,37.32
2018-09-29T21:20:26.509Z,37.53
2018-09-29T21:30:57.731Z,37.70
2018-09-29T21:36:01.027Z,38.04
2018-09-29T21:41:04.312Z,38.03
2018-09-29T21:46:07.588Z,38.35
2018-09-29T21:51:10.996Z,38.16
2018-09-29T21:56:14.461Z,37.87
2018-09-29T22:01:31.120Z,38.55
2018-09-29T22:06:34.407Z,38.60
2018-09-29T22:11:37.700Z,38.33
2018-09-29T22:16:40.983Z,38.08
2018-09-29T22:21:45.040Z,38.18
2018-09-29T22:26:48.676Z,38.26
2018-09-29T22:31:52.091Z,38.40
2018-09-29T22:36:55.378Z,38.52
2018-09-29T22:41:58.735Z,38.15
2018-09-29T22:47:02.107Z,38.30
2018-09-29T22:52:05.439Z,38.56
2018-09-29T22:57:08.762Z,38.40
2018-09-29T23:02:12.108Z,38.77
2018-09-29T23:07:15.428Z,38.39
2018-09-29T23:12:19.202Z,38.58
2018-09-29T23:17:22.494Z,38.49
2018-09-29T23:22:26.235Z,38.65
2018-09-29T23:27:30.026Z,38.31
2018-09-29T23:32:33.317Z,38.40
2018-09-29T23:37:36.616Z,38.47
2018-09-29T23:42:40.042Z,38.33
2018-09-29T23:47:44.274Z,38.89
2018-09-29T23:52:47.574Z,38.51
2018-09-29T23:57:51.122Z,39.01
